sensor_id;sensor_type;location;lat;lon;timestamp;temperature;humidity
15556;DHT22;7879;48.660;9.116;2023-11-21T00:00:17;7.00;99.90
15556;DHT22;7879;48.660;9.116;2023-11-21T00:02:44;7.00;99.90
15556;DHT22;7879;48.660;9.116;2023-11-21T00:05:15;7.00;99.90
15556;DHT22;7879;48.660;9.116;2023-11-21T00:07:43;7.00;99.90
15556;DHT22;7879;48.660;9.116;2023-11-21T00:10:11;7.00;99.90
15556;DHT22;7879;48.660;9.116;2023-11-21T00:12:38;7.00;99.90
15556;DHT22;7879;48.660;9.116;2023-11-21T00:15:09;7.00;99.90
15556;DHT22;7879;48.660;9.116;2023-11-21T00:17:38;7.00;99.90
15556;DHT22;7879;48.660;9.116;2023-11-21T00:20:06;7.10;99.90
15556;DHT22;7879;48.660;9.116;2023-11-21T00:22:34;7.00;99.90
15556;DHT22;7879;48.660;9.116;2023-11-21T00:25:02;7.00;99.90
15556;DHT22;7879;48.660;9.116;2023-11-21T00:27:30;7.10;99.90
15556;DHT22;7879;48.660;9.116;2023-11-21T00:29:57;7.00;99.90
15556;DHT22;7879;48.660;9.116;2023-11-21T00:32:24;7.00;99.90
15556;DHT22;7879;48.660;9.116;2023-11-21T00:34:51;7.00;99.90
15556;DHT22;7879;48.660;9.116;2023-11-21T00:37:18;7.00;99.90
15556;DHT22;7879;48.660;9.116;2023-11-21T00:39:45;7.00;99.90
15556;DHT22;7879;48.660;9.116;2023-11-21T00:42:11;7.00;99.90
15556;DHT22;7879;48.660;9.116;2023-11-21T00:44:38;7.00;99.90
15556;DHT22;7879;48.660;9.116;2023-11-21T00:47:06;7.00;99.90
15556;DHT22;7879;48.660;9.116;2023-11-21T00:49:33;7.00;99.90
15556;DHT22;7879;48.660;9.116;2023-11-21T00:52:00;7.00;99.90
15556;DHT22;7879;48.660;9.116;2023-11-21T00:54:27;7.00;99.90
15556;DHT22;7879;48.660;9.116;2023-11-21T00:56:54;7.00;99.90
15556;DHT22;7879;48.660;9.116;2023-11-21T00:59:22;6.90;99.90
15556;DHT22;7879;48.660;9.116;2023-11-21T01:01:49;7.00;99.90
15556;DHT22;7879;48.660;9.116;2023-11-21T01:04:17;7.00;99.90
15556;DHT22;7879;48.660;9.116;2023-11-21T01:06:44;7.00;99.90
15556;DHT22;7879;48.660;9.116;2023-11-21T01:09:11;7.00;99.90
15556;DHT22;7879;48.660;9.116;2023-11-21T01:11:39;7.00;99.90
15556;DHT22;7879;48.660;9.116;2023-11-21T01:14:06;7.00;99.90
15556;DHT22;7879;48.660;9.116;2023-11-21T01:16:35;7.00;99.90
15556;DHT22;7879;48.660;9.116;2023-11-21T01:19:02;7.00;99.90
15556;DHT22;7879;48.660;9.116;2023-11-21T01:21:31;7.00;99.90
15556;DHT22;7879;48.660;9.116;2023-11-21T01:24:01;7.00;99.90
15556;DHT22;7879;48.660;9.116;2023-11-21T01:26:29;7.00;99.90
15556;DHT22;7879;48.660;9.116;2023-11-21T01:28:56;7.00;99.90
15556;DHT22;7879;48.660;9.116;2023-11-21T01:31:23;7.00;99.90
15556;DHT22;7879;48.660;9.116;2023-11-21T01:33:50;7.00;99.90
15556;DHT22;7879;48.660;9.116;2023-11-21T01:36:17;7.00;99.90
15556;DHT22;7879;48.660;9.116;2023-11-21T01:38:44;6.90;99.90
15556;DHT22;7879;48.660;9.116;2023-11-21T01:41:12;7.00;99.90
15556;DHT22;7879;48.660;9.116;2023-11-21T01:43:41;7.00;99.90
15556;DHT22;7879;48.660;9.116;2023-11-21T01:46:09;7.00;99.90
15556;DHT22;7879;48.660;9.116;2023-11-21T01:48:36;6.90;99.90
15556;DHT22;7879;48.660;9.116;2023-11-21T01:51:03;6.90;99.90
15556;DHT22;7879;48.660;9.116;2023-11-21T01:53:30;6.90;99.90
15556;DHT22;7879;48.660;9.116;2023-11-21T01:55:57;6.90;99.90
15556;DHT22;7879;48.660;9.116;2023-11-21T01:58:24;7.00;99.90
15556;DHT22;7879;48.660;9.116;2023-11-21T02:00:51;6.90;99.90
15556;DHT22;7879;48.660;9.116;2023-11-21T02:03:21;6.90;99.90
15556;DHT22;7879;48.660;9.116;2023-11-21T02:05:48;6.90;99.90
15556;DHT22;7879;48.660;9.116;2023-11-21T02:08:15;6.90;99.90
15556;DHT22;7879;48.660;9.116;2023-11-21T02:10:42;6.90;99.90
15556;DHT22;7879;48.660;9.116;2023-11-21T02:13:09;6.90;99.90
15556;DHT22;7879;48.660;9.116;2023-11-21T02:15:38;6.90;99.90
15556;DHT22;7879;48.660;9.116;2023-11-21T02:18:05;6.90;99.90
15556;DHT22;7879;48.660;9.116;2023-11-21T02:20:33;6.90;99.90
15556;DHT22;7879;48.660;9.116;2023-11-21T02:23:01;6.90;99.90
15556;DHT22;7879;48.660;9.116;2023-11-21T02:29:16;6.80;99.90
15556;DHT22;7879;48.660;9.116;2023-11-21T02:31:45;6.80;99.90
15556;DHT22;7879;48.660;9.116;2023-11-21T02:34:15;6.70;99.90
15556;DHT22;7879;48.660;9.116;2023-11-21T02:36:44;6.70;99.90
15556;DHT22;7879;48.660;9.116;2023-11-21T02:39:11;6.60;99.90
15556;DHT22;7879;48.660;9.116;2023-11-21T02:41:38;6.70;99.90
15556;DHT22;7879;48.660;9.116;2023-11-21T02:44:06;6.70;99.90
15556;DHT22;7879;48.660;9.116;2023-11-21T02:46:33;6.70;99.90
15556;DHT22;7879;48.660;9.116;2023-11-21T02:49:01;6.70;99.90
15556;DHT22;7879;48.660;9.116;2023-11-21T02:51:29;6.70;99.90
15556;DHT22;7879;48.660;9.116;2023-11-21T02:56:25;6.60;99.90
15556;DHT22;7879;48.660;9.116;2023-11-21T02:58:55;6.60;99.90
15556;DHT22;7879;48.660;9.116;2023-11-21T03:01:22;6.50;99.90
15556;DHT22;7879;48.660;9.116;2023-11-21T03:03:52;6.60;99.90
15556;DHT22;7879;48.660;9.116;2023-11-21T03:06:20;6.60;99.90
15556;DHT22;7879;48.660;9.116;2023-11-21T03:08:47;6.50;99.90
15556;DHT22;7879;48.660;9.116;2023-11-21T03:11:14;6.60;99.90
15556;DHT22;7879;48.660;9.116;2023-11-21T03:13:41;6.50;99.90
15556;DHT22;7879;48.660;9.116;2023-11-21T03:16:09;6.60;99.90
15556;DHT22;7879;48.660;9.116;2023-11-21T03:18:38;6.60;99.90
15556;DHT22;7879;48.660;9.116;2023-11-21T03:21:06;6.60;99.90
15556;DHT22;7879;48.660;9.116;2023-11-21T03:23:35;6.60;99.90
15556;DHT22;7879;48.660;9.116;2023-11-21T03:26:03;6.60;99.90
15556;DHT22;7879;48.660;9.116;2023-11-21T03:28:30;6.60;99.90
15556;DHT22;7879;48.660;9.116;2023-11-21T03:30:57;6.60;99.90
15556;DHT22;7879;48.660;9.116;2023-11-21T03:33:24;6.50;99.90
15556;DHT22;7879;48.660;9.116;2023-11-21T03:35:51;6.50;99.90
15556;DHT22;7879;48.660;9.116;2023-11-21T03:38:19;6.50;99.90
15556;DHT22;7879;48.660;9.116;2023-11-21T03:40:47;6.50;99.90
15556;DHT22;7879;48.660;9.116;2023-11-21T03:43:17;6.50;99.90
15556;DHT22;7879;48.660;9.116;2023-11-21T03:45:44;6.50;99.90
15556;DHT22;7879;48.660;9.116;2023-11-21T03:48:12;6.50;99.90
15556;DHT22;7879;48.660;9.116;2023-11-21T03:50:39;6.50;99.90
15556;DHT22;7879;48.660;9.116;2023-11-21T03:53:06;6.50;99.90
15556;DHT22;7879;48.660;9.116;2023-11-21T03:55:32;6.50;99.90
15556;DHT22;7879;48.660;9.116;2023-11-21T03:57:59;6.50;99.90
15556;DHT22;7879;48.660;9.116;2023-11-21T04:00:26;6.50;99.90
15556;DHT22;7879;48.660;9.116;2023-11-21T04:02:56;6.50;99.90
15556;DHT22;7879;48.660;9.116;2023-11-21T04:05:23;6.50;99.90
15556;DHT22;7879;48.660;9.116;2023-11-21T04:07:50;6.50;99.90
15556;DHT22;7879;48.660;9.116;2023-11-21T04:10:18;6.50;99.90
15556;DHT22;7879;48.660;9.116;2023-11-21T04:12:44;6.50;99.90
15556;DHT22;7879;48.660;9.116;2023-11-21T04:15:12;6.50;99.90
15556;DHT22;7879;48.660;9.116;2023-11-21T04:17:42;6.50;99.90
15556;DHT22;7879;48.660;9.116;2023-11-21T04:20:09;6.50;99.90
15556;DHT22;7879;48.660;9.116;2023-11-21T04:22:41;6.50;99.90
15556;DHT22;7879;48.660;9.116;2023-11-21T04:25:12;6.50;99.90
15556;DHT22;7879;48.660;9.116;2023-11-21T04:27:40;6.50;99.90
15556;DHT22;7879;48.660;9.116;2023-11-21T04:30:07;6.50;99.90
15556;DHT22;7879;48.660;9.116;2023-11-21T04:32:34;6.50;99.90
15556;DHT22;7879;48.660;9.116;2023-11-21T04:35:01;6.50;99.90
15556;DHT22;7879;48.660;9.116;2023-11-21T04:37:28;6.50;99.90
15556;DHT22;7879;48.660;9.116;2023-11-21T04:39:55;6.50;99.90
15556;DHT22;7879;48.660;9.116;2023-11-21T04:42:22;6.50;99.90
15556;DHT22;7879;48.660;9.116;2023-11-21T04:44:49;6.40;99.90
15556;DHT22;7879;48.660;9.116;2023-11-21T04:47:16;6.50;99.90
15556;DHT22;7879;48.660;9.116;2023-11-21T04:49:43;6.50;99.90
15556;DHT22;7879;48.660;9.116;2023-11-21T04:52:10;6.50;99.90
15556;DHT22;7879;48.660;9.116;2023-11-21T04:54:37;6.50;99.90
15556;DHT22;7879;48.660;9.116;2023-11-21T04:57:04;6.50;99.90
15556;DHT22;7879;48.660;9.116;2023-11-21T04:59:31;6.50;99.90
15556;DHT22;7879;48.660;9.116;2023-11-21T05:01:58;6.50;99.90
15556;DHT22;7879;48.660;9.116;2023-11-21T05:04:26;6.60;99.90
15556;DHT22;7879;48.660;9.116;2023-11-21T05:06:54;6.50;99.90
15556;DHT22;7879;48.660;9.116;2023-11-21T05:09:20;6.50;99.90
15556;DHT22;7879;48.660;9.116;2023-11-21T05:11:49;6.50;99.90
15556;DHT22;7879;48.660;9.116;2023-11-21T05:14:15;6.50;99.90
15556;DHT22;7879;48.660;9.116;2023-11-21T05:16:42;6.40;99.90
15556;DHT22;7879;48.660;9.116;2023-11-21T05:19:09;6.50;99.90
15556;DHT22;7879;48.660;9.116;2023-11-21T05:21:36;6.50;99.90
15556;DHT22;7879;48.660;9.116;2023-11-21T05:24:03;6.40;99.90
15556;DHT22;7879;48.660;9.116;2023-11-21T05:26:30;6.40;99.90
15556;DHT22;7879;48.660;9.116;2023-11-21T05:28:57;6.40;99.90
15556;DHT22;7879;48.660;9.116;2023-11-21T05:31:24;6.50;99.90
15556;DHT22;7879;48.660;9.116;2023-11-21T05:33:50;6.40;99.90
15556;DHT22;7879;48.660;9.116;2023-11-21T05:36:17;6.40;99.90
15556;DHT22;7879;48.660;9.116;2023-11-21T05:38:44;6.40;99.90
15556;DHT22;7879;48.660;9.116;2023-11-21T05:41:12;6.40;99.90
15556;DHT22;7879;48.660;9.116;2023-11-21T05:43:40;6.40;99.90
15556;DHT22;7879;48.660;9.116;2023-11-21T05:46:07;6.40;99.90
15556;DHT22;7879;48.660;9.116;2023-11-21T05:48:35;6.40;99.90
15556;DHT22;7879;48.660;9.116;2023-11-21T05:51:05;6.40;99.90
15556;DHT22;7879;48.660;9.116;2023-11-21T05:53:32;6.50;99.90
15556;DHT22;7879;48.660;9.116;2023-11-21T05:55:59;6.40;99.90
15556;DHT22;7879;48.660;9.116;2023-11-21T05:58:26;6.50;99.90
15556;DHT22;7879;48.660;9.116;2023-11-21T06:00:53;6.50;99.90
15556;DHT22;7879;48.660;9.116;2023-11-21T06:03:20;6.40;99.90
15556;DHT22;7879;48.660;9.116;2023-11-21T06:05:47;6.40;99.90
15556;DHT22;7879;48.660;9.116;2023-11-21T06:08:15;6.40;99.90
15556;DHT22;7879;48.660;9.116;2023-11-21T06:10:43;6.40;99.90
15556;DHT22;7879;48.660;9.116;2023-11-21T06:13:16;6.40;99.90
15556;DHT22;7879;48.660;9.116;2023-11-21T06:15:42;6.40;99.90
15556;DHT22;7879;48.660;9.116;2023-11-21T06:18:09;6.30;99.90
15556;DHT22;7879;48.660;9.116;2023-11-21T06:20:41;6.40;99.90
15556;DHT22;7879;48.660;9.116;2023-11-21T06:23:07;6.30;99.90
15556;DHT22;7879;48.660;9.116;2023-11-21T06:25:35;6.30;99.90
15556;DHT22;7879;48.660;9.116;2023-11-21T06:28:03;6.30;99.90
15556;DHT22;7879;48.660;9.116;2023-11-21T06:30:30;6.30;99.90
15556;DHT22;7879;48.660;9.116;2023-11-21T06:32:57;6.40;99.90
15556;DHT22;7879;48.660;9.116;2023-11-21T06:35:24;6.40;99.90
15556;DHT22;7879;48.660;9.116;2023-11-21T06:37:51;6.40;99.90
15556;DHT22;7879;48.660;9.116;2023-11-21T06:40:19;6.40;99.90
15556;DHT22;7879;48.660;9.116;2023-11-21T06:42:47;6.40;99.90
15556;DHT22;7879;48.660;9.116;2023-11-21T06:45:14;6.40;99.90
15556;DHT22;7879;48.660;9.116;2023-11-21T06:47:41;6.40;99.90
15556;DHT22;7879;48.660;9.116;2023-11-21T06:50:09;6.40;99.90
15556;DHT22;7879;48.660;9.116;2023-11-21T06:52:36;6.30;99.90
15556;DHT22;7879;48.660;9.116;2023-11-21T06:55:03;6.40;99.90
15556;DHT22;7879;48.660;9.116;2023-11-21T06:57:30;6.40;99.90
15556;DHT22;7879;48.660;9.116;2023-11-21T06:59:57;6.40;99.90
15556;DHT22;7879;48.660;9.116;2023-11-21T07:02:24;6.40;99.90
15556;DHT22;7879;48.660;9.116;2023-11-21T07:04:51;6.40;99.90
15556;DHT22;7879;48.660;9.116;2023-11-21T07:07:18;6.40;99.90
15556;DHT22;7879;48.660;9.116;2023-11-21T07:09:45;6.50;99.90
15556;DHT22;7879;48.660;9.116;2023-11-21T07:12:12;6.50;99.90
15556;DHT22;7879;48.660;9.116;2023-11-21T07:14:40;6.50;99.90
15556;DHT22;7879;48.660;9.116;2023-11-21T07:17:10;6.50;99.90
15556;DHT22;7879;48.660;9.116;2023-11-21T07:19:36;6.50;99.90
15556;DHT22;7879;48.660;9.116;2023-11-21T07:22:03;6.50;99.90
15556;DHT22;7879;48.660;9.116;2023-11-21T07:24:32;6.50;99.90
15556;DHT22;7879;48.660;9.116;2023-11-21T07:26:59;6.50;99.90
15556;DHT22;7879;48.660;9.116;2023-11-21T07:29:27;6.60;99.90
15556;DHT22;7879;48.660;9.116;2023-11-21T07:31:56;6.60;99.90
15556;DHT22;7879;48.660;9.116;2023-11-21T07:34:23;6.60;99.90
15556;DHT22;7879;48.660;9.116;2023-11-21T07:36:50;6.60;99.90
15556;DHT22;7879;48.660;9.116;2023-11-21T07:39:17;6.60;99.90
15556;DHT22;7879;48.660;9.116;2023-11-21T07:41:44;6.70;99.90
15556;DHT22;7879;48.660;9.116;2023-11-21T07:44:18;6.60;99.90
15556;DHT22;7879;48.660;9.116;2023-11-21T07:46:46;6.70;99.90
15556;DHT22;7879;48.660;9.116;2023-11-21T07:49:13;6.70;99.90
15556;DHT22;7879;48.660;9.116;2023-11-21T07:51:43;6.70;99.90
15556;DHT22;7879;48.660;9.116;2023-11-21T07:54:11;6.70;99.90
15556;DHT22;7879;48.660;9.116;2023-11-21T07:56:37;6.70;99.90
15556;DHT22;7879;48.660;9.116;2023-11-21T07:59:04;6.70;99.90
15556;DHT22;7879;48.660;9.116;2023-11-21T08:01:31;6.70;99.90
15556;DHT22;7879;48.660;9.116;2023-11-21T08:03:58;6.70;99.90
15556;DHT22;7879;48.660;9.116;2023-11-21T08:06:30;6.70;99.90
15556;DHT22;7879;48.660;9.116;2023-11-21T08:08:57;6.70;99.90
15556;DHT22;7879;48.660;9.116;2023-11-21T08:11:24;6.70;99.90
15556;DHT22;7879;48.660;9.116;2023-11-21T08:13:51;6.70;99.90
15556;DHT22;7879;48.660;9.116;2023-11-21T08:16:18;6.80;99.90
15556;DHT22;7879;48.660;9.116;2023-11-21T08:18:45;6.80;99.90
15556;DHT22;7879;48.660;9.116;2023-11-21T08:21:13;6.70;99.90
15556;DHT22;7879;48.660;9.116;2023-11-21T08:23:40;6.80;99.90
15556;DHT22;7879;48.660;9.116;2023-11-21T08:26:06;6.80;99.90
15556;DHT22;7879;48.660;9.116;2023-11-21T08:28:33;6.80;99.90
15556;DHT22;7879;48.660;9.116;2023-11-21T08:31:01;6.90;99.90
15556;DHT22;7879;48.660;9.116;2023-11-21T08:33:27;6.90;99.90
15556;DHT22;7879;48.660;9.116;2023-11-21T08:35:54;6.90;99.90
15556;DHT22;7879;48.660;9.116;2023-11-21T08:38:21;6.90;99.90
15556;DHT22;7879;48.660;9.116;2023-11-21T08:40:49;6.90;99.90
15556;DHT22;7879;48.660;9.116;2023-11-21T08:43:16;6.90;99.90
15556;DHT22;7879;48.660;9.116;2023-11-21T08:45:43;6.90;99.90
15556;DHT22;7879;48.660;9.116;2023-11-21T08:48:10;6.90;99.90
15556;DHT22;7879;48.660;9.116;2023-11-21T08:50:38;7.00;99.90
15556;DHT22;7879;48.660;9.116;2023-11-21T08:53:05;6.90;99.90
15556;DHT22;7879;48.660;9.116;2023-11-21T08:55:32;6.90;99.90
15556;DHT22;7879;48.660;9.116;2023-11-21T08:58:04;7.00;99.90
15556;DHT22;7879;48.660;9.116;2023-11-21T09:00:32;7.00;99.90
15556;DHT22;7879;48.660;9.116;2023-11-21T09:03:01;7.00;99.90
15556;DHT22;7879;48.660;9.116;2023-11-21T09:05:30;7.10;99.90
15556;DHT22;7879;48.660;9.116;2023-11-21T09:07:57;7.20;99.90
15556;DHT22;7879;48.660;9.116;2023-11-21T09:10:23;7.30;99.90
15556;DHT22;7879;48.660;9.116;2023-11-21T09:12:52;7.30;99.90
15556;DHT22;7879;48.660;9.116;2023-11-21T09:15:19;7.30;99.90
15556;DHT22;7879;48.660;9.116;2023-11-21T09:17:47;7.40;99.90
15556;DHT22;7879;48.660;9.116;2023-11-21T09:20:14;7.40;99.90
15556;DHT22;7879;48.660;9.116;2023-11-21T09:22:42;7.40;99.90
15556;DHT22;7879;48.660;9.116;2023-11-21T09:25:09;7.40;99.90
15556;DHT22;7879;48.660;9.116;2023-11-21T09:27:35;7.40;99.90
15556;DHT22;7879;48.660;9.116;2023-11-21T09:30:02;7.40;99.90
15556;DHT22;7879;48.660;9.116;2023-11-21T09:32:31;7.40;99.90
15556;DHT22;7879;48.660;9.116;2023-11-21T09:34:58;7.40;99.90
15556;DHT22;7879;48.660;9.116;2023-11-21T09:37:27;7.50;99.90
15556;DHT22;7879;48.660;9.116;2023-11-21T09:39:54;7.50;99.90
15556;DHT22;7879;48.660;9.116;2023-11-21T09:42:36;7.60;99.90
15556;DHT22;7879;48.660;9.116;2023-11-21T09:45:24;7.60;99.90
15556;DHT22;7879;48.660;9.116;2023-11-21T09:47:53;7.60;99.90
15556;DHT22;7879;48.660;9.116;2023-11-21T09:50:23;7.70;99.90
15556;DHT22;7879;48.660;9.116;2023-11-21T09:55:47;7.70;99.90
15556;DHT22;7879;48.660;9.116;2023-11-21T09:58:14;7.70;99.90
15556;DHT22;7879;48.660;9.116;2023-11-21T10:00:46;7.70;99.90
15556;DHT22;7879;48.660;9.116;2023-11-21T10:03:13;7.80;99.90
15556;DHT22;7879;48.660;9.116;2023-11-21T10:05:44;7.90;99.90
15556;DHT22;7879;48.660;9.116;2023-11-21T10:08:13;7.90;99.90
15556;DHT22;7879;48.660;9.116;2023-11-21T10:10:43;7.90;99.90
15556;DHT22;7879;48.660;9.116;2023-11-21T10:13:18;8.00;99.90
15556;DHT22;7879;48.660;9.116;2023-11-21T10:15:52;8.00;99.90
15556;DHT22;7879;48.660;9.116;2023-11-21T10:18:20;8.00;99.90
15556;DHT22;7879;48.660;9.116;2023-11-21T10:20:49;8.00;99.90
15556;DHT22;7879;48.660;9.116;2023-11-21T10:23:21;8.00;99.90
15556;DHT22;7879;48.660;9.116;2023-11-21T10:25:51;8.00;99.90
15556;DHT22;7879;48.660;9.116;2023-11-21T10:28:19;8.00;99.90
15556;DHT22;7879;48.660;9.116;2023-11-21T10:30:47;8.00;99.90
15556;DHT22;7879;48.660;9.116;2023-11-21T10:33:14;8.00;99.90
15556;DHT22;7879;48.660;9.116;2023-11-21T10:38:08;8.00;99.90
15556;DHT22;7879;48.660;9.116;2023-11-21T10:40:43;7.90;99.90
15556;DHT22;7879;48.660;9.116;2023-11-21T10:43:11;7.90;99.90
15556;DHT22;7879;48.660;9.116;2023-11-21T10:45:40;7.90;99.90
15556;DHT22;7879;48.660;9.116;2023-11-21T10:48:07;7.90;99.90
15556;DHT22;7879;48.660;9.116;2023-11-21T10:50:35;7.90;99.90
15556;DHT22;7879;48.660;9.116;2023-11-21T10:53:05;7.90;99.90
15556;DHT22;7879;48.660;9.116;2023-11-21T10:55:33;7.90;99.90
15556;DHT22;7879;48.660;9.116;2023-11-21T10:58:03;7.80;99.90
15556;DHT22;7879;48.660;9.116;2023-11-21T11:00:33;7.90;99.90
15556;DHT22;7879;48.660;9.116;2023-11-21T11:03:00;7.80;99.90
15556;DHT22;7879;48.660;9.116;2023-11-21T11:05:29;7.90;99.90
15556;DHT22;7879;48.660;9.116;2023-11-21T11:08:02;7.80;99.90
15556;DHT22;7879;48.660;9.116;2023-11-21T11:10:30;7.80;99.90
15556;DHT22;7879;48.660;9.116;2023-11-21T11:12:58;7.80;99.90
15556;DHT22;7879;48.660;9.116;2023-11-21T11:15:26;7.80;99.90
15556;DHT22;7879;48.660;9.116;2023-11-21T11:17:54;7.80;99.90
15556;DHT22;7879;48.660;9.116;2023-11-21T11:20:29;7.70;99.90
15556;DHT22;7879;48.660;9.116;2023-11-21T11:34:33;7.80;99.90
15556;DHT22;7879;48.660;9.116;2023-11-21T11:37:02;7.80;99.90
15556;DHT22;7879;48.660;9.116;2023-11-21T11:39:43;7.80;99.90
15556;DHT22;7879;48.660;9.116;2023-11-21T11:42:14;7.80;99.90
15556;DHT22;7879;48.660;9.116;2023-11-21T11:47:31;7.80;99.90
15556;DHT22;7879;48.660;9.116;2023-11-21T11:52:45;7.80;99.90
15556;DHT22;7879;48.660;9.116;2023-11-21T11:55:17;7.80;99.90
15556;DHT22;7879;48.660;9.116;2023-11-21T11:57:49;7.80;99.90
15556;DHT22;7879;48.660;9.116;2023-11-21T12:00:42;7.80;99.90
15556;DHT22;7879;48.660;9.116;2023-11-21T12:03:10;7.80;99.90
15556;DHT22;7879;48.660;9.116;2023-11-21T12:05:37;7.90;99.90
15556;DHT22;7879;48.660;9.116;2023-11-21T12:08:09;7.90;99.90
15556;DHT22;7879;48.660;9.116;2023-11-21T12:10:38;7.90;99.90
15556;DHT22;7879;48.660;9.116;2023-11-21T12:13:08;7.90;99.90
15556;DHT22;7879;48.660;9.116;2023-11-21T12:15:35;7.90;99.90
15556;DHT22;7879;48.660;9.116;2023-11-21T12:18:04;8.00;99.90
15556;DHT22;7879;48.660;9.116;2023-11-21T12:20:32;8.00;99.90
15556;DHT22;7879;48.660;9.116;2023-11-21T12:22:59;8.10;99.90
15556;DHT22;7879;48.660;9.116;2023-11-21T12:25:29;8.10;99.90
15556;DHT22;7879;48.660;9.116;2023-11-21T12:27:56;8.20;99.90
15556;DHT22;7879;48.660;9.116;2023-11-21T12:30:29;8.20;99.90
15556;DHT22;7879;48.660;9.116;2023-11-21T12:33:04;8.30;99.90
15556;DHT22;7879;48.660;9.116;2023-11-21T12:35:35;8.40;99.90
15556;DHT22;7879;48.660;9.116;2023-11-21T12:38:03;8.40;99.90
15556;DHT22;7879;48.660;9.116;2023-11-21T12:40:31;8.40;99.90
15556;DHT22;7879;48.660;9.116;2023-11-21T12:42:59;8.50;99.90
15556;DHT22;7879;48.660;9.116;2023-11-21T12:45:28;8.50;99.90
15556;DHT22;7879;48.660;9.116;2023-11-21T12:48:03;8.50;99.90
15556;DHT22;7879;48.660;9.116;2023-11-21T12:50:35;8.60;99.90
15556;DHT22;7879;48.660;9.116;2023-11-21T12:53:06;8.50;99.90
15556;DHT22;7879;48.660;9.116;2023-11-21T12:55:36;8.50;99.90
15556;DHT22;7879;48.660;9.116;2023-11-21T12:58:08;8.50;99.90
15556;DHT22;7879;48.660;9.116;2023-11-21T13:00:39;8.50;99.90
15556;DHT22;7879;48.660;9.116;2023-11-21T13:03:09;8.60;99.90
15556;DHT22;7879;48.660;9.116;2023-11-21T13:05:40;8.60;99.90
15556;DHT22;7879;48.660;9.116;2023-11-21T13:08:14;8.60;99.90
15556;DHT22;7879;48.660;9.116;2023-11-21T13:10:46;8.70;99.90
15556;DHT22;7879;48.660;9.116;2023-11-21T13:13:15;8.70;99.90
15556;DHT22;7879;48.660;9.116;2023-11-21T13:16:08;8.60;99.90
15556;DHT22;7879;48.660;9.116;2023-11-21T13:18:36;8.60;99.90
15556;DHT22;7879;48.660;9.116;2023-11-21T13:21:05;8.50;99.90
15556;DHT22;7879;48.660;9.116;2023-11-21T13:23:41;8.50;99.90
15556;DHT22;7879;48.660;9.116;2023-11-21T13:26:09;8.40;99.90
15556;DHT22;7879;48.660;9.116;2023-11-21T13:28:36;8.30;99.90
15556;DHT22;7879;48.660;9.116;2023-11-21T13:31:05;8.30;99.90
15556;DHT22;7879;48.660;9.116;2023-11-21T13:33:49;8.30;99.90
15556;DHT22;7879;48.660;9.116;2023-11-21T13:36:26;8.30;99.90
15556;DHT22;7879;48.660;9.116;2023-11-21T13:39:07;8.30;99.90
15556;DHT22;7879;48.660;9.116;2023-11-21T13:41:57;8.20;99.90
15556;DHT22;7879;48.660;9.116;2023-11-21T13:44:24;8.20;99.90
15556;DHT22;7879;48.660;9.116;2023-11-21T13:46:55;8.30;99.90
15556;DHT22;7879;48.660;9.116;2023-11-21T13:49:24;8.30;99.90
15556;DHT22;7879;48.660;9.116;2023-11-21T13:51:53;8.20;99.90
15556;DHT22;7879;48.660;9.116;2023-11-21T13:54:22;8.20;99.90
15556;DHT22;7879;48.660;9.116;2023-11-21T13:56:51;8.20;99.90
15556;DHT22;7879;48.660;9.116;2023-11-21T13:59:18;8.20;99.90
15556;DHT22;7879;48.660;9.116;2023-11-21T14:01:50;8.20;99.90
15556;DHT22;7879;48.660;9.116;2023-11-21T14:04:26;8.10;99.90
15556;DHT22;7879;48.660;9.116;2023-11-21T14:06:59;8.20;99.90
15556;DHT22;7879;48.660;9.116;2023-11-21T14:09:37;8.20;99.90
15556;DHT22;7879;48.660;9.116;2023-11-21T14:12:10;8.10;99.90
15556;DHT22;7879;48.660;9.116;2023-11-21T14:14:39;8.20;99.90
15556;DHT22;7879;48.660;9.116;2023-11-21T14:17:06;8.10;99.90
15556;DHT22;7879;48.660;9.116;2023-11-21T14:19:33;8.00;99.90
15556;DHT22;7879;48.660;9.116;2023-11-21T14:22:03;8.10;99.90
15556;DHT22;7879;48.660;9.116;2023-11-21T14:24:30;8.00;99.90
15556;DHT22;7879;48.660;9.116;2023-11-21T14:26:58;8.10;99.90
15556;DHT22;7879;48.660;9.116;2023-11-21T14:29:26;8.00;99.90
15556;DHT22;7879;48.660;9.116;2023-11-21T14:31:54;8.00;99.90
15556;DHT22;7879;48.660;9.116;2023-11-21T14:34:24;8.10;99.90
15556;DHT22;7879;48.660;9.116;2023-11-21T14:36:51;8.00;99.90
15556;DHT22;7879;48.660;9.116;2023-11-21T14:39:17;8.10;99.90
15556;DHT22;7879;48.660;9.116;2023-11-21T14:41:53;8.10;99.90
15556;DHT22;7879;48.660;9.116;2023-11-21T14:44:22;8.10;99.90
15556;DHT22;7879;48.660;9.116;2023-11-21T14:46:54;8.10;99.90
15556;DHT22;7879;48.660;9.116;2023-11-21T14:49:24;8.00;99.90
15556;DHT22;7879;48.660;9.116;2023-11-21T14:51:55;8.00;99.90
15556;DHT22;7879;48.660;9.116;2023-11-21T14:54:34;8.00;99.90
15556;DHT22;7879;48.660;9.116;2023-11-21T14:57:12;8.10;99.90
15556;DHT22;7879;48.660;9.116;2023-11-21T14:59:47;8.10;99.90
15556;DHT22;7879;48.660;9.116;2023-11-21T15:02:18;8.10;99.90
15556;DHT22;7879;48.660;9.116;2023-11-21T15:05:09;8.10;99.90
15556;DHT22;7879;48.660;9.116;2023-11-21T15:07:42;8.00;99.90
15556;DHT22;7879;48.660;9.116;2023-11-21T15:10:10;8.10;99.90
15556;DHT22;7879;48.660;9.116;2023-11-21T15:12:42;8.10;99.90
15556;DHT22;7879;48.660;9.116;2023-11-21T15:15:11;8.00;99.90
15556;DHT22;7879;48.660;9.116;2023-11-21T15:17:38;8.00;99.90
15556;DHT22;7879;48.660;9.116;2023-11-21T15:20:10;8.10;99.90
15556;DHT22;7879;48.660;9.116;2023-11-21T15:22:39;8.00;99.90
15556;DHT22;7879;48.660;9.116;2023-11-21T15:25:07;8.00;99.90
15556;DHT22;7879;48.660;9.116;2023-11-21T15:27:37;8.00;99.90
15556;DHT22;7879;48.660;9.116;2023-11-21T15:30:05;8.00;99.90
15556;DHT22;7879;48.660;9.116;2023-11-21T15:32:32;8.00;99.90
15556;DHT22;7879;48.660;9.116;2023-11-21T15:34:59;7.90;99.90
15556;DHT22;7879;48.660;9.116;2023-11-21T15:37:26;7.90;99.90
15556;DHT22;7879;48.660;9.116;2023-11-21T15:39:55;7.90;99.90
15556;DHT22;7879;48.660;9.116;2023-11-21T15:42:22;7.90;99.90
15556;DHT22;7879;48.660;9.116;2023-11-21T15:44:59;8.10;99.90
15556;DHT22;7879;48.660;9.116;2023-11-21T15:47:26;7.90;99.90
15556;DHT22;7879;48.660;9.116;2023-11-21T15:49:53;8.00;99.90
15556;DHT22;7879;48.660;9.116;2023-11-21T15:52:20;7.90;99.90
15556;DHT22;7879;48.660;9.116;2023-11-21T15:54:46;7.90;99.90
15556;DHT22;7879;48.660;9.116;2023-11-21T15:57:13;7.90;99.90
15556;DHT22;7879;48.660;9.116;2023-11-21T15:59:41;8.00;99.90
15556;DHT22;7879;48.660;9.116;2023-11-21T16:02:10;7.90;99.90
15556;DHT22;7879;48.660;9.116;2023-11-21T16:04:39;7.90;99.90
15556;DHT22;7879;48.660;9.116;2023-11-21T16:07:10;7.90;99.90
15556;DHT22;7879;48.660;9.116;2023-11-21T16:09:38;7.90;99.90
15556;DHT22;7879;48.660;9.116;2023-11-21T16:12:06;8.00;99.90
15556;DHT22;7879;48.660;9.116;2023-11-21T16:14:36;7.90;99.90
15556;DHT22;7879;48.660;9.116;2023-11-21T16:17:08;7.90;99.90
15556;DHT22;7879;48.660;9.116;2023-11-21T16:19:37;7.90;99.90
15556;DHT22;7879;48.660;9.116;2023-11-21T16:22:05;7.90;99.90
15556;DHT22;7879;48.660;9.116;2023-11-21T16:24:35;7.80;99.90
15556;DHT22;7879;48.660;9.116;2023-11-21T16:27:03;7.80;99.90
15556;DHT22;7879;48.660;9.116;2023-11-21T16:29:31;7.80;99.90
15556;DHT22;7879;48.660;9.116;2023-11-21T16:31:59;7.80;99.90
15556;DHT22;7879;48.660;9.116;2023-11-21T16:34:27;7.80;99.90
15556;DHT22;7879;48.660;9.116;2023-11-21T16:36:55;7.80;99.90
15556;DHT22;7879;48.660;9.116;2023-11-21T16:39:25;7.80;99.90